sensor_id;sensor_type;location;lat;lon;timestamp;temperature;humidity
65460;DHT22;52058;49.822;6.754;2023-04-03T00:02:21;5.40;73.60
65460;DHT22;52058;49.822;6.754;2023-04-03T00:04:49;5.37;74.31
65460;DHT22;52058;49.822;6.754;2023-04-03T00:07:16;5.29;73.51
65460;DHT22;52058;49.822;6.754;2023-04-03T00:09:43;5.19;74.62
65460;DHT22;52058;49.822;6.754;2023-04-03T00:12:09;5.09;75.05
65460;DHT22;52058;49.822;6.754;2023-04-03T00:14:36;4.91;74.79
65460;DHT22;52058;49.822;6.754;2023-04-03T00:17:03;4.75;76.01
65460;DHT22;52058;49.822;6.754;2023-04-03T00:19:30;4.62;76.11
65460;DHT22;52058;49.822;6.754;2023-04-03T00:21:58;4.53;75.99
65460;DHT22;52058;49.822;6.754;2023-04-03T00:24:25;4.40;76.68
65460;DHT22;52058;49.822;6.754;2023-04-03T00:26:52;4.24;76.56
65460;DHT22;52058;49.822;6.754;2023-04-03T00:29:18;4.20;76.76
65460;DHT22;52058;49.822;6.754;2023-04-03T00:31:45;4.07;77.33
65460;DHT22;52058;49.822;6.754;2023-04-03T00:34:12;3.99;77.68
65460;DHT22;52058;49.822;6.754;2023-04-03T00:36:38;3.86;78.48
65460;DHT22;52058;49.822;6.754;2023-04-03T00:39:06;3.74;79.03
65460;DHT22;52058;49.822;6.754;2023-04-03T00:41:33;3.65;79.49
65460;DHT22;52058;49.822;6.754;2023-04-03T00:44:00;3.52;79.65
65460;DHT22;52058;49.822;6.754;2023-04-03T00:46:27;3.42;80.32
65460;DHT22;52058;49.822;6.754;2023-04-03T00:48:53;3.38;80.89
65460;DHT22;52058;49.822;6.754;2023-04-03T00:51:23;3.27;81.89
65460;DHT22;52058;49.822;6.754;2023-04-03T00:53:53;3.17;82.84
65460;DHT22;52058;49.822;6.754;2023-04-03T00:56:25;3.07;82.25
65460;DHT22;52058;49.822;6.754;2023-04-03T00:58:55;2.95;82.96
65460;DHT22;52058;49.822;6.754;2023-04-03T01:01:25;2.86;83.62
65460;DHT22;52058;49.822;6.754;2023-04-03T01:03:53;2.83;84.13
65460;DHT22;52058;49.822;6.754;2023-04-03T01:06:23;2.72;85.17
65460;DHT22;52058;49.822;6.754;2023-04-03T01:08:52;2.52;85.36
65460;DHT22;52058;49.822;6.754;2023-04-03T01:11:18;2.49;85.93
65460;DHT22;52058;49.822;6.754;2023-04-03T01:13:47;2.42;87.00
65460;DHT22;52058;49.822;6.754;2023-04-03T01:16:14;2.35;86.90
65460;DHT22;52058;49.822;6.754;2023-04-03T01:18:42;2.22;88.02
65460;DHT22;52058;49.822;6.754;2023-04-03T01:24:36;2.03;88.41
65460;DHT22;52058;49.822;6.754;2023-04-03T01:27:06;1.94;89.74
65460;DHT22;52058;49.822;6.754;2023-04-03T01:29:35;1.90;90.24
65460;DHT22;52058;49.822;6.754;2023-04-03T01:32:03;1.86;90.44
65460;DHT22;52058;49.822;6.754;2023-04-03T01:34:31;1.76;90.22
65460;DHT22;52058;49.822;6.754;2023-04-03T01:36:57;1.70;90.46
65460;DHT22;52058;49.822;6.754;2023-04-03T01:39:24;1.66;90.95
65460;DHT22;52058;49.822;6.754;2023-04-03T01:41:51;1.62;91.65
65460;DHT22;52058;49.822;6.754;2023-04-03T01:44:18;1.48;91.39
65460;DHT22;52058;49.822;6.754;2023-04-03T01:46:44;1.45;92.26
65460;DHT22;52058;49.822;6.754;2023-04-03T01:49:13;1.39;92.10
65460;DHT22;52058;49.822;6.754;2023-04-03T01:51:39;1.27;91.88
65460;DHT22;52058;49.822;6.754;2023-04-03T01:54:06;1.15;91.59
65460;DHT22;52058;49.822;6.754;2023-04-03T01:56:33;1.08;92.16
65460;DHT22;52058;49.822;6.754;2023-04-03T01:58:59;1.08;92.63
65460;DHT22;52058;49.822;6.754;2023-04-03T02:01:26;1.04;92.37
65460;DHT22;52058;49.822;6.754;2023-04-03T02:03:53;0.95;92.89
65460;DHT22;52058;49.822;6.754;2023-04-03T02:06:21;0.90;92.91
65460;DHT22;52058;49.822;6.754;2023-04-03T02:08:47;0.84;92.90
65460;DHT22;52058;49.822;6.754;2023-04-03T02:11:14;0.83;93.28
65460;DHT22;52058;49.822;6.754;2023-04-03T02:13:41;0.71;93.76
65460;DHT22;52058;49.822;6.754;2023-04-03T02:16:09;0.74;93.68
65460;DHT22;52058;49.822;6.754;2023-04-03T02:18:36;0.66;93.42
65460;DHT22;52058;49.822;6.754;2023-04-03T02:21:03;0.62;93.67
65460;DHT22;52058;49.822;6.754;2023-04-03T02:23:31;0.54;93.69
65460;DHT22;52058;49.822;6.754;2023-04-03T02:26:03;0.52;93.57
65460;DHT22;52058;49.822;6.754;2023-04-03T02:28:31;0.50;95.23
65460;DHT22;52058;49.822;6.754;2023-04-03T02:30:57;0.49;95.15
65460;DHT22;52058;49.822;6.754;2023-04-03T02:33:26;0.52;95.60
65460;DHT22;52058;49.822;6.754;2023-04-03T02:35:53;0.53;95.53
65460;DHT22;52058;49.822;6.754;2023-04-03T02:38:20;0.48;95.80
65460;DHT22;52058;49.822;6.754;2023-04-03T02:40:49;0.57;96.00
65460;DHT22;52058;49.822;6.754;2023-04-03T02:43:16;0.56;95.81
65460;DHT22;52058;49.822;6.754;2023-04-03T02:45:43;0.60;96.06
65460;DHT22;52058;49.822;6.754;2023-04-03T02:48:09;0.56;95.93
65460;DHT22;52058;49.822;6.754;2023-04-03T02:50:36;0.60;95.98
65460;DHT22;52058;49.822;6.754;2023-04-03T02:53:03;0.66;95.88
65460;DHT22;52058;49.822;6.754;2023-04-03T02:55:30;0.74;95.87
65460;DHT22;52058;49.822;6.754;2023-04-03T02:57:58;0.81;95.46
65460;DHT22;52058;49.822;6.754;2023-04-03T03:00:25;0.80;95.18
65460;DHT22;52058;49.822;6.754;2023-04-03T03:02:51;0.90;95.01
65460;DHT22;52058;49.822;6.754;2023-04-03T03:05:18;0.94;94.89
65460;DHT22;52058;49.822;6.754;2023-04-03T03:07:45;1.02;94.92
65460;DHT22;52058;49.822;6.754;2023-04-03T03:10:11;1.05;94.47
65460;DHT22;52058;49.822;6.754;2023-04-03T03:12:38;1.12;94.41
65460;DHT22;52058;49.822;6.754;2023-04-03T03:15:08;1.11;94.31
65460;DHT22;52058;49.822;6.754;2023-04-03T03:17:34;1.15;94.43
65460;DHT22;52058;49.822;6.754;2023-04-03T03:20:01;1.14;94.27
65460;DHT22;52058;49.822;6.754;2023-04-03T03:22:28;1.09;94.29
65460;DHT22;52058;49.822;6.754;2023-04-03T03:24:55;1.04;94.34
65460;DHT22;52058;49.822;6.754;2023-04-03T03:27:22;0.93;94.37
65460;DHT22;52058;49.822;6.754;2023-04-03T03:29:49;0.87;94.57
65460;DHT22;52058;49.822;6.754;2023-04-03T03:32:17;0.83;94.67
65460;DHT22;52058;49.822;6.754;2023-04-03T03:34:44;0.81;94.55
65460;DHT22;52058;49.822;6.754;2023-04-03T03:37:10;0.79;95.25
65460;DHT22;52058;49.822;6.754;2023-04-03T03:39:37;0.73;95.10
65460;DHT22;52058;49.822;6.754;2023-04-03T03:42:04;0.73;95.49
65460;DHT22;52058;49.822;6.754;2023-04-03T03:44:30;0.67;95.58
65460;DHT22;52058;49.822;6.754;2023-04-03T03:46:57;0.69;95.42
65460;DHT22;52058;49.822;6.754;2023-04-03T03:49:25;0.76;95.80
65460;DHT22;52058;49.822;6.754;2023-04-03T03:51:52;0.73;95.66
65460;DHT22;52058;49.822;6.754;2023-04-03T03:54:19;0.62;96.01
65460;DHT22;52058;49.822;6.754;2023-04-03T03:56:45;0.62;96.30
65460;DHT22;52058;49.822;6.754;2023-04-03T03:59:12;0.54;96.22
65460;DHT22;52058;49.822;6.754;2023-04-03T04:01:39;0.45;96.22
65460;DHT22;52058;49.822;6.754;2023-04-03T04:04:06;0.39;96.55
65460;DHT22;52058;49.822;6.754;2023-04-03T04:06:34;0.28;96.64
65460;DHT22;52058;49.822;6.754;2023-04-03T04:09:00;0.19;96.92
65460;DHT22;52058;49.822;6.754;2023-04-03T04:11:27;0.22;97.16
65460;DHT22;52058;49.822;6.754;2023-04-03T04:13:54;0.18;97.02
65460;DHT22;52058;49.822;6.754;2023-04-03T04:16:20;0.16;97.33
65460;DHT22;52058;49.822;6.754;2023-04-03T04:18:47;0.25;97.37
65460;DHT22;52058;49.822;6.754;2023-04-03T04:21:14;0.29;97.37
65460;DHT22;52058;49.822;6.754;2023-04-03T04:23:42;0.32;97.25
65460;DHT22;52058;49.822;6.754;2023-04-03T04:26:08;0.29;97.28
65460;DHT22;52058;49.822;6.754;2023-04-03T04:28:35;0.32;97.21
65460;DHT22;52058;49.822;6.754;2023-04-03T04:31:02;0.30;97.27
65460;DHT22;52058;49.822;6.754;2023-04-03T04:33:28;0.38;97.26
65460;DHT22;52058;49.822;6.754;2023-04-03T04:35:55;0.35;97.00
65460;DHT22;52058;49.822;6.754;2023-04-03T04:38:22;0.32;97.00
65460;DHT22;52058;49.822;6.754;2023-04-03T04:40:49;0.33;97.02
65460;DHT22;52058;49.822;6.754;2023-04-03T04:43:16;0.33;96.72
65460;DHT22;52058;49.822;6.754;2023-04-03T04:45:43;0.35;96.82
65460;DHT22;52058;49.822;6.754;2023-04-03T04:48:09;0.26;96.97
65460;DHT22;52058;49.822;6.754;2023-04-03T04:50:36;0.23;97.00
65460;DHT22;52058;49.822;6.754;2023-04-03T04:53:02;0.21;97.11
65460;DHT22;52058;49.822;6.754;2023-04-03T04:55:29;0.18;96.86
65460;DHT22;52058;49.822;6.754;2023-04-03T04:57:57;0.11;97.00
65460;DHT22;52058;49.822;6.754;2023-04-03T05:00:24;0.02;96.67
65460;DHT22;52058;49.822;6.754;2023-04-03T05:02:50;-0.05;96.73
65460;DHT22;52058;49.822;6.754;2023-04-03T05:05:17;-0.05;96.94
65460;DHT22;52058;49.822;6.754;2023-04-03T05:07:44;0.02;97.50
65460;DHT22;52058;49.822;6.754;2023-04-03T05:10:10;0.01;97.32
65460;DHT22;52058;49.822;6.754;2023-04-03T05:12:37;0.05;97.84
65460;DHT22;52058;49.822;6.754;2023-04-03T05:15:06;0.06;97.88
65460;DHT22;52058;49.822;6.754;2023-04-03T05:17:33;-0.01;97.55
65460;DHT22;52058;49.822;6.754;2023-04-03T05:19:59;0.02;97.49
65460;DHT22;52058;49.822;6.754;2023-04-03T05:22:26;0.02;97.75
65460;DHT22;52058;49.822;6.754;2023-04-03T05:24:52;0.11;98.14
65460;DHT22;52058;49.822;6.754;2023-04-03T05:27:19;0.23;97.99
65460;DHT22;52058;49.822;6.754;2023-04-03T05:29:46;0.29;97.74
65460;DHT22;52058;49.822;6.754;2023-04-03T05:32:13;0.36;97.61
65460;DHT22;52058;49.822;6.754;2023-04-03T05:34:40;0.38;97.61
65460;DHT22;52058;49.822;6.754;2023-04-03T05:37:07;0.42;97.31
65460;DHT22;52058;49.822;6.754;2023-04-03T05:39:33;0.43;97.25
65460;DHT22;52058;49.822;6.754;2023-04-03T05:42:00;0.46;97.33
65460;DHT22;52058;49.822;6.754;2023-04-03T05:44:27;0.52;97.16
65460;DHT22;52058;49.822;6.754;2023-04-03T05:46:53;0.56;96.89
65460;DHT22;52058;49.822;6.754;2023-04-03T05:49:21;0.60;96.82
65460;DHT22;52058;49.822;6.754;2023-04-03T05:51:48;0.69;96.61
65460;DHT22;52058;49.822;6.754;2023-04-03T05:54:18;0.71;96.33
65460;DHT22;52058;49.822;6.754;2023-04-03T05:56:45;0.77;96.39
65460;DHT22;52058;49.822;6.754;2023-04-03T05:59:12;0.81;96.15
65460;DHT22;52058;49.822;6.754;2023-04-03T06:01:38;0.84;95.85
65460;DHT22;52058;49.822;6.754;2023-04-03T06:04:05;0.91;95.84
65460;DHT22;52058;49.822;6.754;2023-04-03T06:06:46;0.95;95.92
65460;DHT22;52058;49.822;6.754;2023-04-03T06:09:13;1.00;95.77
65460;DHT22;52058;49.822;6.754;2023-04-03T06:11:40;1.09;95.58
65460;DHT22;52058;49.822;6.754;2023-04-03T06:14:08;1.17;95.54
65460;DHT22;52058;49.822;6.754;2023-04-03T06:16:34;1.27;95.41
65460;DHT22;52058;49.822;6.754;2023-04-03T06:19:01;1.35;95.48
65460;DHT22;52058;49.822;6.754;2023-04-03T06:21:28;1.42;95.03
65460;DHT22;52058;49.822;6.754;2023-04-03T06:23:56;1.48;95.17
65460;DHT22;52058;49.822;6.754;2023-04-03T06:26:23;1.58;95.19
65460;DHT22;52058;49.822;6.754;2023-04-03T06:28:50;1.70;94.49
65460;DHT22;52058;49.822;6.754;2023-04-03T06:31:16;1.77;94.20
65460;DHT22;52058;49.822;6.754;2023-04-03T06:33:43;1.91;93.84
65460;DHT22;52058;49.822;6.754;2023-04-03T06:36:10;2.01;93.73
65460;DHT22;52058;49.822;6.754;2023-04-03T06:38:38;2.13;93.35
65460;DHT22;52058;49.822;6.754;2023-04-03T06:41:06;2.37;92.01
65460;DHT22;52058;49.822;6.754;2023-04-03T06:43:32;2.45;91.97
65460;DHT22;52058;49.822;6.754;2023-04-03T06:45:59;2.56;91.89
65460;DHT22;52058;49.822;6.754;2023-04-03T06:48:26;2.69;90.59
65460;DHT22;52058;49.822;6.754;2023-04-03T06:50:52;2.90;90.30
65460;DHT22;52058;49.822;6.754;2023-04-03T06:53:19;2.96;89.98
65460;DHT22;52058;49.822;6.754;2023-04-03T06:55:46;3.16;88.95
65460;DHT22;52058;49.822;6.754;2023-04-03T06:58:14;3.28;88.68
65460;DHT22;52058;49.822;6.754;2023-04-03T07:00:42;3.38;88.79
65460;DHT22;52058;49.822;6.754;2023-04-03T07:03:09;3.51;87.89
65460;DHT22;52058;49.822;6.754;2023-04-03T07:05:35;3.61;87.80
65460;DHT22;52058;49.822;6.754;2023-04-03T07:08:02;3.75;86.19
65460;DHT22;52058;49.822;6.754;2023-04-03T07:10:29;3.83;86.21
65460;DHT22;52058;49.822;6.754;2023-04-03T07:12:55;3.99;86.03
65460;DHT22;52058;49.822;6.754;2023-04-03T07:15:24;4.11;85.00
65460;DHT22;52058;49.822;6.754;2023-04-03T07:17:50;4.16;84.70
65460;DHT22;52058;49.822;6.754;2023-04-03T07:20:17;4.27;83.43
65460;DHT22;52058;49.822;6.754;2023-04-03T07:22:44;4.33;83.30
65460;DHT22;52058;49.822;6.754;2023-04-03T07:25:10;4.38;83.78
65460;DHT22;52058;49.822;6.754;2023-04-03T07:27:37;4.50;83.24
65460;DHT22;52058;49.822;6.754;2023-04-03T07:30:05;4.57;82.47
65460;DHT22;52058;49.822;6.754;2023-04-03T07:32:33;4.62;82.73
65460;DHT22;52058;49.822;6.754;2023-04-03T07:35:00;4.65;81.47
65460;DHT22;52058;49.822;6.754;2023-04-03T07:37:27;4.71;81.14
65460;DHT22;52058;49.822;6.754;2023-04-03T07:39:53;4.78;81.02
65460;DHT22;52058;49.822;6.754;2023-04-03T07:42:20;4.78;80.67
65460;DHT22;52058;49.822;6.754;2023-04-03T07:44:47;4.82;80.29
65460;DHT22;52058;49.822;6.754;2023-04-03T07:47:13;4.95;80.39
65460;DHT22;52058;49.822;6.754;2023-04-03T07:49:43;4.98;79.42
65460;DHT22;52058;49.822;6.754;2023-04-03T07:52:10;5.05;79.52
65460;DHT22;52058;49.822;6.754;2023-04-03T07:54:37;5.13;78.30
65460;DHT22;52058;49.822;6.754;2023-04-03T07:57:03;5.16;77.84
65460;DHT22;52058;49.822;6.754;2023-04-03T07:59:30;5.16;77.91
65460;DHT22;52058;49.822;6.754;2023-04-03T08:01:57;5.26;77.58
65460;DHT22;52058;49.822;6.754;2023-04-03T08:04:23;5.25;77.15
65460;DHT22;52058;49.822;6.754;2023-04-03T08:06:52;5.37;76.48
65460;DHT22;52058;49.822;6.754;2023-04-03T08:09:19;5.36;76.12
65460;DHT22;52058;49.822;6.754;2023-04-03T08:11:45;5.40;75.75
65460;DHT22;52058;49.822;6.754;2023-04-03T08:14:13;5.44;76.27
65460;DHT22;52058;49.822;6.754;2023-04-03T08:16:43;5.50;76.22
65460;DHT22;52058;49.822;6.754;2023-04-03T08:19:10;5.58;76.80
65460;DHT22;52058;49.822;6.754;2023-04-03T08:21:39;5.64;76.11
65460;DHT22;52058;49.822;6.754;2023-04-03T08:24:08;5.66;76.16
65460;DHT22;52058;49.822;6.754;2023-04-03T08:26:35;5.64;76.05
65460;DHT22;52058;49.822;6.754;2023-04-03T08:29:02;5.75;76.86
65460;DHT22;52058;49.822;6.754;2023-04-03T08:31:29;5.74;74.70
65460;DHT22;52058;49.822;6.754;2023-04-03T08:33:57;5.79;74.68
65460;DHT22;52058;49.822;6.754;2023-04-03T08:36:25;5.85;73.73
65460;DHT22;52058;49.822;6.754;2023-04-03T08:38:53;5.87;74.46
65460;DHT22;52058;49.822;6.754;2023-04-03T08:41:29;5.95;73.82
65460;DHT22;52058;49.822;6.754;2023-04-03T08:44:02;6.09;74.22
65460;DHT22;52058;49.822;6.754;2023-04-03T08:46:38;6.11;73.67
65460;DHT22;52058;49.822;6.754;2023-04-03T08:49:10;6.18;72.72
65460;DHT22;52058;49.822;6.754;2023-04-03T08:51:46;6.28;72.54
65460;DHT22;52058;49.822;6.754;2023-04-03T08:54:24;6.54;72.25
65460;DHT22;52058;49.822;6.754;2023-04-03T08:56:54;6.58;71.73
65460;DHT22;52058;49.822;6.754;2023-04-03T08:59:26;6.67;70.73
65460;DHT22;52058;49.822;6.754;2023-04-03T09:01:54;6.84;70.38
65460;DHT22;52058;49.822;6.754;2023-04-03T09:04:31;7.12;69.92
65460;DHT22;52058;49.822;6.754;2023-04-03T09:07:04;7.18;68.64
65460;DHT22;52058;49.822;6.754;2023-04-03T09:09:33;7.14;67.22
65460;DHT22;52058;49.822;6.754;2023-04-03T09:12:12;7.31;67.64
65460;DHT22;52058;49.822;6.754;2023-04-03T09:14:45;7.41;68.14
65460;DHT22;52058;49.822;6.754;2023-04-03T09:17:26;7.67;66.49
65460;DHT22;52058;49.822;6.754;2023-04-03T09:20:00;7.93;66.72
65460;DHT22;52058;49.822;6.754;2023-04-03T09:22:31;8.05;65.64
65460;DHT22;52058;49.822;6.754;2023-04-03T09:25:11;8.28;66.06
65460;DHT22;52058;49.822;6.754;2023-04-03T09:27:40;8.35;65.47
65460;DHT22;52058;49.822;6.754;2023-04-03T09:30:13;8.48;63.84
65460;DHT22;52058;49.822;6.754;2023-04-03T09:32:43;8.52;64.05
65460;DHT22;52058;49.822;6.754;2023-04-03T09:35:21;8.42;64.75
65460;DHT22;52058;49.822;6.754;2023-04-03T09:37:50;8.17;64.97
65460;DHT22;52058;49.822;6.754;2023-04-03T09:40:30;7.93;63.62
65460;DHT22;52058;49.822;6.754;2023-04-03T09:43:01;8.14;65.66
65460;DHT22;52058;49.822;6.754;2023-04-03T09:45:30;8.07;63.24
65460;DHT22;52058;49.822;6.754;2023-04-03T09:48:09;8.27;64.72
65460;DHT22;52058;49.822;6.754;2023-04-03T09:50:53;8.30;61.97
65460;DHT22;52058;49.822;6.754;2023-04-03T09:53:33;8.49;61.01
65460;DHT22;52058;49.822;6.754;2023-04-03T09:56:01;8.82;62.36
65460;DHT22;52058;49.822;6.754;2023-04-03T09:58:38;8.86;61.43
65460;DHT22;52058;49.822;6.754;2023-04-03T10:01:06;8.92;60.61
65460;DHT22;52058;49.822;6.754;2023-04-03T10:03:34;9.23;61.64
65460;DHT22;52058;49.822;6.754;2023-04-03T10:06:03;9.54;59.57
65460;DHT22;52058;49.822;6.754;2023-04-03T10:08:30;9.67;61.30
65460;DHT22;52058;49.822;6.754;2023-04-03T10:11:15;9.81;60.11
65460;DHT22;52058;49.822;6.754;2023-04-03T10:13:54;9.82;59.95
65460;DHT22;52058;49.822;6.754;2023-04-03T10:16:25;9.71;58.27
65460;DHT22;52058;49.822;6.754;2023-04-03T10:19:01;9.67;59.19
65460;DHT22;52058;49.822;6.754;2023-04-03T10:21:35;9.79;59.58
65460;DHT22;52058;49.822;6.754;2023-04-03T10:24:10;9.86;59.88
65460;DHT22;52058;49.822;6.754;2023-04-03T10:26:44;9.55;59.48
65460;DHT22;52058;49.822;6.754;2023-04-03T10:29:15;9.40;58.49
65460;DHT22;52058;49.822;6.754;2023-04-03T10:31:51;9.34;59.33
65460;DHT22;52058;49.822;6.754;2023-04-03T10:34:22;9.41;59.07
65460;DHT22;52058;49.822;6.754;2023-04-03T10:36:56;9.35;58.32
65460;DHT22;52058;49.822;6.754;2023-04-03T10:39:31;9.24;58.99
65460;DHT22;52058;49.822;6.754;2023-04-03T10:42:04;9.14;57.96
65460;DHT22;52058;49.822;6.754;2023-04-03T10:44:46;9.04;59.00
65460;DHT22;52058;49.822;6.754;2023-04-03T10:47:19;8.93;58.88
65460;DHT22;52058;49.822;6.754;2023-04-03T10:49:54;8.90;60.38
65460;DHT22;52058;49.822;6.754;2023-04-03T10:52:24;8.61;59.71
65460;DHT22;52058;49.822;6.754;2023-04-03T10:54:59;8.63;59.92
65460;DHT22;52058;49.822;6.754;2023-04-03T10:57:28;8.75;60.77
65460;DHT22;52058;49.822;6.754;2023-04-03T10:59:59;9.00;59.48
65460;DHT22;52058;49.822;6.754;2023-04-03T11:02:28;9.26;59.57
65460;DHT22;52058;49.822;6.754;2023-04-03T11:04:59;9.32;58.40
65460;DHT22;52058;49.822;6.754;2023-04-03T11:07:32;9.78;59.73
65460;DHT22;52058;49.822;6.754;2023-04-03T11:10:03;9.75;59.26
65460;DHT22;52058;49.822;6.754;2023-04-03T11:12:42;9.38;57.26
65460;DHT22;52058;49.822;6.754;2023-04-03T11:15:15;9.57;57.11
65460;DHT22;52058;49.822;6.754;2023-04-03T11:17:46;9.65;56.51
65460;DHT22;52058;49.822;6.754;2023-04-03T11:20:18;9.62;57.47
65460;DHT22;52058;49.822;6.754;2023-04-03T11:22:49;9.85;58.54
65460;DHT22;52058;49.822;6.754;2023-04-03T11:25:19;9.92;58.25
65460;DHT22;52058;49.822;6.754;2023-04-03T11:27:50;9.93;56.92
65460;DHT22;52058;49.822;6.754;2023-04-03T11:30:22;10.10;58.57
65460;DHT22;52058;49.822;6.754;2023-04-03T11:33:05;10.17;58.04
65460;DHT22;52058;49.822;6.754;2023-04-03T11:35:34;10.02;57.20
65460;DHT22;52058;49.822;6.754;2023-04-03T11:38:03;9.93;57.38
65460;DHT22;52058;49.822;6.754;2023-04-03T11:40:33;9.82;58.02
65460;DHT22;52058;49.822;6.754;2023-04-03T11:43:06;9.61;57.43
65460;DHT22;52058;49.822;6.754;2023-04-03T11:45:37;9.78;59.80
65460;DHT22;52058;49.822;6.754;2023-04-03T11:48:06;9.83;58.95
65460;DHT22;52058;49.822;6.754;2023-04-03T11:50:52;9.71;58.58
65460;DHT22;52058;49.822;6.754;2023-04-03T11:53:33;9.50;57.48
65460;DHT22;52058;49.822;6.754;2023-04-03T11:59:16;9.75;59.70
65460;DHT22;52058;49.822;6.754;2023-04-03T12:01:46;9.28;57.51
65460;DHT22;52058;49.822;6.754;2023-04-03T12:04:15;9.38;57.82
65460;DHT22;52058;49.822;6.754;2023-04-03T12:07:11;9.57;58.28
65460;DHT22;52058;49.822;6.754;2023-04-03T12:12:56;9.34;57.80
65460;DHT22;52058;49.822;6.754;2023-04-03T12:15:54;9.61;58.98
65460;DHT22;52058;49.822;6.754;2023-04-03T12:18:40;9.77;59.32
65460;DHT22;52058;49.822;6.754;2023-04-03T12:21:08;9.82;59.14
65460;DHT22;52058;49.822;6.754;2023-04-03T12:23:36;9.82;57.60
65460;DHT22;52058;49.822;6.754;2023-04-03T12:26:19;9.61;57.16
65460;DHT22;52058;49.822;6.754;2023-04-03T12:28:48;9.69;57.28
65460;DHT22;52058;49.822;6.754;2023-04-03T12:31:16;9.75;56.42
65460;DHT22;52058;49.822;6.754;2023-04-03T12:36:42;9.57;57.22
65460;DHT22;52058;49.822;6.754;2023-04-03T12:42:24;9.65;57.51
65460;DHT22;52058;49.822;6.754;2023-04-03T12:44:59;9.61;55.90
65460;DHT22;52058;49.822;6.754;2023-04-03T12:47:29;9.72;56.27
65460;DHT22;52058;49.822;6.754;2023-04-03T12:49:59;9.52;54.62
65460;DHT22;52058;49.822;6.754;2023-04-03T12:52:37;9.67;56.02
65460;DHT22;52058;49.822;6.754;2023-04-03T12:55:13;9.79;56.76
65460;DHT22;52058;49.822;6.754;2023-04-03T12:57:40;10.03;55.30
65460;DHT22;52058;49.822;6.754;2023-04-03T13:00:29;10.27;52.64
65460;DHT22;52058;49.822;6.754;2023-04-03T13:02:57;10.47;53.55
65460;DHT22;52058;49.822;6.754;2023-04-03T13:05:24;10.71;53.05
65460;DHT22;52058;49.822;6.754;2023-04-03T13:07:58;11.16;51.64
65460;DHT22;52058;49.822;6.754;2023-04-03T13:10:25;11.77;51.08
65460;DHT22;52058;49.822;6.754;2023-04-03T13:12:53;12.75;49.37
65460;DHT22;52058;49.822;6.754;2023-04-03T13:15:23;14.74;46.37
65460;DHT22;52058;49.822;6.754;2023-04-03T13:17:51;19.82;37.45
65460;DHT22;52058;49.822;6.754;2023-04-03T13:20:22;23.42;33.29
65460;DHT22;52058;49.822;6.754;2023-04-03T13:22:54;24.46;30.80
65460;DHT22;52058;49.822;6.754;2023-04-03T13:25:24;25.42;30.05
65460;DHT22;52058;49.822;6.754;2023-04-03T13:27:53;23.19;30.73
65460;DHT22;52058;49.822;6.754;2023-04-03T13:30:25;26.32;28.56
65460;DHT22;52058;49.822;6.754;2023-04-03T13:32:52;26.84;28.18
65460;DHT22;52058;49.822;6.754;2023-04-03T13:35:28;26.43;28.60
65460;DHT22;52058;49.822;6.754;2023-04-03T13:37:58;25.24;28.92
65460;DHT22;52058;49.822;6.754;2023-04-03T13:40:25;25.82;28.92
65460;DHT22;52058;49.822;6.754;2023-04-03T13:43:00;24.51;30.47
65460;DHT22;52058;49.822;6.754;2023-04-03T13:45:28;21.42;31.74
65460;DHT22;52058;49.822;6.754;2023-04-03T13:48:08;19.87;34.32
65460;DHT22;52058;49.822;6.754;2023-04-03T13:50:51;22.96;31.60
65460;DHT22;52058;49.822;6.754;2023-04-03T13:53:20;24.45;30.76
65460;DHT22;52058;49.822;6.754;2023-04-03T13:56:08;24.82;29.18
65460;DHT22;52058;49.822;6.754;2023-04-03T13:58:36;24.46;29.09
65460;DHT22;52058;49.822;6.754;2023-04-03T14:01:10;24.43;29.98
65460;DHT22;52058;49.822;6.754;2023-04-03T14:03:43;22.75;32.89
65460;DHT22;52058;49.822;6.754;2023-04-03T14:06:12;22.54;32.70
65460;DHT22;52058;49.822;6.754;2023-04-03T14:08:40;21.46;33.79
65460;DHT22;52058;49.822;6.754;2023-04-03T14:11:11;21.71;33.59
65460;DHT22;52058;49.822;6.754;2023-04-03T14:13:39;22.06;33.56
65460;DHT22;52058;49.822;6.754;2023-04-03T14:16:06;23.54;31.80
65460;DHT22;52058;49.822;6.754;2023-04-03T14:18:33;20.87;34.81
65460;DHT22;52058;49.822;6.754;2023-04-03T14:21:02;20.62;35.18
65460;DHT22;52058;49.822;6.754;2023-04-03T14:23:29;21.10;33.91
65460;DHT22;52058;49.822;6.754;2023-04-03T14:25:57;17.66;37.07
65460;DHT22;52058;49.822;6.754;2023-04-03T14:28:25;17.52;38.29
65460;DHT22;52058;49.822;6.754;2023-04-03T14:30:52;20.60;34.38
65460;DHT22;52058;49.822;6.754;2023-04-03T14:33:21;20.86;33.62
65460;DHT22;52058;49.822;6.754;2023-04-03T14:35:48;20.56;34.04
65460;DHT22;52058;49.822;6.754;2023-04-03T14:38:23;20.62;34.45
65460;DHT22;52058;49.822;6.754;2023-04-03T14:40:51;21.20;34.22
65460;DHT22;52058;49.822;6.754;2023-04-03T14:43:20;22.16;32.63
65460;DHT22;52058;49.822;6.754;2023-04-03T14:45:48;21.97;33.67
65460;DHT22;52058;49.822;6.754;2023-04-03T14:48:18;21.62;32.88
65460;DHT22;52058;49.822;6.754;2023-04-03T14:50:46;21.65;32.67
65460;DHT22;52058;49.822;6.754;2023-04-03T14:53:13;21.92;33.30
65460;DHT22;52058;49.822;6.754;2023-04-03T14:55:43;21.28;33.63
65460;DHT22;52058;49.822;6.754;2023-04-03T14:58:13;19.94;34.34
65460;DHT22;52058;49.822;6.754;2023-04-03T15:00:41;20.87;33.89
65460;DHT22;52058;49.822;6.754;2023-04-03T15:03:12;21.10;33.66
65460;DHT22;52058;49.822;6.754;2023-04-03T15:05:40;21.34;33.08
65460;DHT22;52058;49.822;6.754;2023-04-03T15:08:16;21.83;33.61
65460;DHT22;52058;49.822;6.754;2023-04-03T15:10:47;21.56;34.02
65460;DHT22;52058;49.822;6.754;2023-04-03T15:13:14;22.00;33.37
65460;DHT22;52058;49.822;6.754;2023-04-03T15:15:44;22.03;32.78
65460;DHT22;52058;49.822;6.754;2023-04-03T15:18:15;21.62;33.06
65460;DHT22;52058;49.822;6.754;2023-04-03T15:20:43;21.24;33.92
65460;DHT22;52058;49.822;6.754;2023-04-03T15:23:11;21.73;33.56
65460;DHT22;52058;49.822;6.754;2023-04-03T15:25:38;21.14;32.86
65460;DHT22;52058;49.822;6.754;2023-04-03T15:28:06;21.23;32.12
65460;DHT22;52058;49.822;6.754;2023-04-03T15:30:38;20.70;32.83
65460;DHT22;52058;49.822;6.754;2023-04-03T15:33:07;20.38;33.42
65460;DHT22;52058;49.822;6.754;2023-04-03T15:35:35;20.09;33.00
65460;DHT22;52058;49.822;6.754;2023-04-03T15:38:01;19.95;33.49
65460;DHT22;52058;49.822;6.754;2023-04-03T15:40:28;20.17;33.65
65460;DHT22;52058;49.822;6.754;2023-04-03T15:42:55;20.21;33.60
65460;DHT22;52058;49.822;6.754;2023-04-03T15:45:22;20.62;33.27
65460;DHT22;52058;49.822;6.754;2023-04-03T15:47:49;20.40;32.94
65460;DHT22;52058;49.822;6.754;2023-04-03T15:50:18;20.04;33.05
65460;DHT22;52058;49.822;6.754;2023-04-03T15:52:47;19.85;33.61
65460;DHT22;52058;49.822;6.754;2023-04-03T15:55:19;19.92;33.92
65460;DHT22;52058;49.822;6.754;2023-04-03T15:57:45;20.33;32.90
65460;DHT22;52058;49.822;6.754;2023-04-03T16:00:13;20.17;33.10
65460;DHT22;52058;49.822;6.754;2023-04-03T16:02:40;19.43;33.94
65460;DHT22;52058;49.822;6.754;2023-04-03T16:05:08;20.14;33.42
65460;DHT22;52058;49.822;6.754;2023-04-03T16:07:38;20.43;33.73
65460;DHT22;52058;49.822;6.754;2023-04-03T16:10:07;19.23;35.13
65460;DHT22;52058;49.822;6.754;2023-04-03T16:12:34;18.55;35.75